Tiempo atmosférico en la estación meteorológica de Fuencaliente, Ciudad Real (640 m.)



Fecha
DESCASC
Temp. máxima en grados centígrados (hora)
DESCASC
Temp. mínima en grados centígrados (hora)
DESCASC
Temp. media en grados centígrados
DESCASC
Racha de viento máxima en m/sg (hora)
DESCASC
Velocidad máxima media en intervalos de 10 minutos(hora)
DESCASC
Precipitaciones diarias en mm
DESCASC
Precipitaciones de 00:00 a 06:00 en mm
DESCASC
Precipitaciones de 06:00 a 12:00 en mm
DESCASC
Precipitaciones de 12:00 a 18:00 en mm
DESCASC
Precipitaciones de 18:00 a 24:00 en mm
DESCASC
22-01-2020 11.1 (15:50) 2.2 (08:50) 6.7 5.83 (16:00) 3.06 (16:00) 1.4 1.4 0 0 0
21-01-2020 5.2 (13:40) 2.1 (09:30) 3.6 16.94 (00:10) 8.89 (00:10) 2.6 0 2.4 0.2 0
20-01-2020 5.4 (14:30) -0.1 (06:50) 2.7 16.67 (15:10) 9.17 (23:20) 1.4 0 1.4 0 0
19-01-2020 9.5 (00:00) 1.7 (00:00) 5.6 13.89 (23:10) 6.39 (21:00) 16 0 0.8 5.2 10
18-01-2020 10.3 (22:40) 4.5 (00:00) 7.4 12.78 (23:40) 5 (22:40) 15.8 0 5.4 8.2 2.2
17-01-2020 15.5 (15:20) 4.9 (00:00) 10.2 6.67 (14:50) 3.06 (12:30) 0 0 0 0 0
16-01-2020 16.1 (14:30) 2.1 (00:00) 9.1 7.5 (15:30) 3.89 (16:00) 0 0 0 0 0
15-01-2020 14.2 (15:20) 0.3 (00:00) 7.2 5.56 (15:20) 2.78 (14:10) 0 0 0 0 0
14-01-2020 11.1 (15:50) -1.2 (-00:0) 5 5.28 (14:00) 3.33 (13:10) 0.2 0 0.2 0 0
13-01-2020 12.7 (16:00) -1.3 (-00:0) 5.7 5 (13:10) 2.78 (14:40) 0 0 0 0 0
12-01-2020 14.7 (16:10) -0.5 (-00:0) 7.1 4.44 (15:20) 2.22 (13:30) 0 0 0 0 0
11-01-2020 13.9 (15:30) 1.4 (00:00) 7.6 9.17 (12:30) 4.44 (12:10) 0 0 0 0 0
10-01-2020 11.6 (14:20) 2.6 (00:00) 7.1 10.56 (16:00) 5.83 (15:40) 0 0 0 0 0
09-01-2020 15.3 (14:50) 1.1 (00:00) 8.2 5 (16:10) 3.06 (15:50) 0 0 0 0 0
08-01-2020 19.8 (16:40) 2.2 (00:00) 11 3.61 (14:20) 2.22 (16:10) 0 0 0 0 0
07-01-2020 19 (16:40) 1.1 (00:00) 10.1 5.56 (15:30) 2.5 (15:20) 0 0 0 0 0
06-01-2020 16.4 (16:40) 0.4 (00:00) 8.4 3.61 (15:10) 1.94 (14:40) 0 0 0 0 0
05-01-2020 15.9 (15:40) 0.2 (00:00) 8 3.06 (11:40) 1.67 (12:10) 0 0 0 0 0
04-01-2020 13.4 (15:20) 1.5 (00:00) 7.4 8.89 (12:00) 4.17 (11:50) 0 0 0 0 0
03-01-2020 12.9 (15:50) 1.7 (00:00) 7.3 5 (16:20) 3.06 (16:20) 0 0 0 0 0
02-01-2020 17.5 (16:10) 2.3 (00:00) 9.9 4.17 (15:20) 2.5 (15:20) 0 0 0 0 0
01-01-2020 18.4 (15:40) 1.5 (00:00) 9.9 2.78 (14:10) 1.67 (13:30) 0 0 0 0 0
31-12-2019 16.8 (15:40) 1.3 (00:00) 9 3.06 (13:30) 1.67 (14:40) 0 0 0 0 0
30-12-2019 -- (--) -- (--) -- -- (--) -- (--) -- 0 0 -- 0
29-12-2019 19 (15:30) 2.8 (00:00) 10.9 3.61 (08:30) 1.67 (15:50) 0 0 0 0 0
28-12-2019 22.4 (16:50) 5.4 (00:00) 13.9 5.83 (08:10) 3.33 (08:30) 0 0 0 0 0
27-12-2019 20.8 (14:40) 5.5 (00:00) 13.1 6.94 (00:20) 4.17 (00:20) 0 0 0 0 0

Gráficas

Temp. máximas Temp. mínimas Temp. medias Precipitaciones Rachas de viento máximas Velocidades máximas media en intervalos de 10 minutos

Datos horarios

Fecha y hora oficial Temperatura (ºC) Velocidad del viento (km/h) Dirección del viento Racha (km/h) Dirección de racha Precipitación (mm) Presión (hPa) Tendencia (hPa) Humedad (%)
2020-01-25 23:00:00 -- -- -- -- -- -- -- -- --
2020-01-25 22:00:00 -- -- -- -- -- -- -- -- --
2020-01-25 21:00:00 -- -- -- -- -- -- -- -- --
2020-01-25 20:00:00 -- -- -- -- -- -- -- -- --
2020-01-25 19:00:00 -- -- -- -- -- -- -- -- --
2020-01-25 18:00:00 -- -- -- -- -- -- -- -- --
2020-01-25 17:00:00 -- -- -- -- -- -- -- -- --
2020-01-25 16:00:00 -- -- -- -- -- -- -- -- --
2020-01-25 15:00:00 -- -- -- -- -- -- -- -- --
2020-01-25 14:00:00 -- -- -- -- -- -- -- -- --
2020-01-25 13:00:00 -- -- -- -- -- -- -- -- --
2020-01-25 12:00:00 -- -- -- -- -- -- -- -- --
2020-01-25 11:00:00 -- -- -- -- -- -- -- -- --
2020-01-25 10:00:00 -- -- -- -- -- -- -- -- --
2020-01-25 09:00:00 -- -- -- -- -- -- -- -- --
2020-01-25 08:00:00 -- -- -- -- -- -- -- -- --
2020-01-25 07:00:00 -- -- -- -- -- -- -- -- --
2020-01-25 06:00:00 -- -- -- -- -- -- -- -- --
2020-01-25 05:00:00 -- -- -- -- -- -- -- -- --
2020-01-25 04:00:00 -- -- -- -- -- -- -- -- --
2020-01-25 03:00:00 -- -- -- -- -- -- -- -- --
2020-01-25 02:00:00 -- -- -- -- -- -- -- -- --
2020-01-25 01:00:00 -- -- -- -- -- -- -- -- --
2020-01-25 00:00:00 -- -- -- -- -- -- -- -- --
2020-01-24 23:00:00 -- -- -- -- -- -- -- -- --
2020-01-24 22:00:00 -- -- -- -- -- -- -- -- --
2020-01-24 21:00:00 -- -- -- -- -- -- -- -- --
2020-01-24 20:00:00 7.4 0 Calma 3 Este 0 -- -- 89
2020-01-24 19:00:00 8.1 0 Calma 6 Nordeste 0 -- -- 84
2020-01-24 18:00:00 9.7 0 Calma 4 Sur 0 -- -- 79
2020-01-24 17:00:00 10.3 3 Sur 8 Sudeste 0 -- -- 71
2020-01-24 16:00:00 10.4 5 Sur 13 Sur 0 -- -- 71
2020-01-24 15:00:00 11.7 5 Sur 14 Sudoeste 0 -- -- 66
2020-01-24 14:00:00 11 3 Norte 12 Sudeste 0 -- -- 73
2020-01-24 13:00:00 8.8 5 Sur 14 Sur 0 -- -- 80
2020-01-24 12:00:00 8.8 8 Sur 19 Sur 0 -- -- 81
2020-01-24 11:00:00 8.3 6 Sudeste 13 Sur 0 -- -- 85
2020-01-24 10:00:00 6.2 0 Calma 3 Nordeste 0 -- -- 95
2020-01-24 09:00:00 5.9 0 Calma 3 Nordeste 0 -- -- 95
2020-01-24 08:00:00 5.9 0 Calma 4 Nordeste 0 -- -- 94
2020-01-24 07:00:00 6.1 0 Calma 10 Nordeste 0 -- -- 92
2020-01-24 06:00:00 6.2 2 Sur 7 Sur 0 -- -- 93
2020-01-24 05:00:00 6.2 2 Sudeste 12 Sur 0 -- -- 93
2020-01-24 04:00:00 6.2 4 Sudeste 14 Sudeste 0.4 -- -- 93
2020-01-24 03:00:00 6.2 4 Sur 15 Sur 0.4 -- -- 94
2020-01-24 02:00:00 6.2 0 Calma 4 Este 1.2 -- -- 94
2020-01-24 01:00:00 6.2 0 Calma 4 Sudoeste 0.6 -- -- 94
2020-01-24 00:00:00 6 3 Nordeste 4 Nordeste 0 -- -- 93
2020-01-23 23:00:00 6 3 Este 6 Nordeste 0 -- -- 93
2020-01-23 22:00:00 5.9 0 Calma 3 Sudoeste 0 -- -- 92
2020-01-23 21:00:00 5.9 0 Calma 3 Este 0 -- -- 92
2020-01-23 20:00:00 6 0 Calma 8 Sudoeste 0 -- -- 90
2020-01-23 19:00:00 6.1 2 Nordeste 6 Sudoeste 0 -- -- 85
2020-01-23 18:00:00 8.5 0 Calma 9 Sudeste 0 -- -- 79
2020-01-23 17:00:00 8.6 4 Sur 12 Sur 0 -- -- 77
2020-01-23 16:00:00 8.6 3 Sur 9 Sudeste 0.2 -- -- 80
2020-01-23 15:00:00 8 7 Sur 18 Sudeste 0.4 -- -- 82
2020-01-23 14:00:00 8.6 6 Sur 17 Sudoeste 0 -- -- 74
2020-01-23 13:00:00 9 9 Sur 19 Sudoeste 0 -- -- 69
2020-01-23 12:00:00 9 9 Sur 20 Sudeste 0 -- -- 73
2020-01-23 11:00:00 8.2 5 Sur 14 Sur 0 -- -- 80
2020-01-23 10:00:00 6 3 Sudoeste 10 Sudeste 0 -- -- 88
2020-01-23 09:00:00 5 0 Calma 5 Este 0 -- -- 95
2020-01-23 08:00:00 5.1 0 Calma 4 Este 0 -- -- 95
2020-01-23 07:00:00 5 3 Nordeste 5 Noroeste 0 -- -- 96
2020-01-23 06:00:00 5 0 Calma 4 Noroeste 0 -- -- 96
2020-01-23 05:00:00 4.5 2 Nordeste 4 Nordeste 0.2 -- -- 96
2020-01-23 04:00:00 4.1 0 Calma 5 Oeste 0 -- -- 96
2020-01-23 03:00:00 3.5 0 Calma 3 Nordeste 0 -- -- 95
2020-01-23 02:00:00 3.7 0 Calma 5 Nordeste 0.2 -- -- 93
2020-01-23 01:00:00 4.5 0 Calma 6 Nordeste 0 -- -- 93
2020-01-23 00:00:00 4.9 0 Calma 4 Nordeste 0 -- -- 91
2020-01-22 23:00:00 6.1 0 Calma 5 Este 0 -- -- 92
2020-01-22 22:00:00 5.9 0 Calma 5 Nordeste 0 -- -- 90
2020-01-22 21:00:00 6.4 0 Calma 15 Sur 0 -- -- 88
2020-01-22 20:00:00 6 3 Este 6 Nordeste 0 -- -- 87
2020-01-22 19:00:00 7.7 0 Calma 6 Nordeste 0 -- -- 81
2020-01-22 18:00:00 9.1 0 Calma 9 Sudoeste 0 -- -- 79
2020-01-22 17:00:00 9.9 6 Sur 18 Sur 0 -- -- 67
2020-01-22 16:00:00 11 11 Sur 21 Sur 0 -- -- 61
2020-01-22 15:00:00 10.7 8 Sur 15 Sudeste 0 -- -- 64
2020-01-22 14:00:00 10.1 7 Nordeste 16 Nordeste 0 -- -- 66
2020-01-22 13:00:00 9.8 5 Sur 15 Sudoeste 0 -- -- 73
2020-01-22 12:00:00 8.9 5 Sudoeste 13 Sudoeste 0 -- -- 76
2020-01-22 11:00:00 8.5 5 Sur 9 Sur 0 -- -- 78
2020-01-22 10:00:00 5.5 2 Sur 9 Noroeste 0 -- -- 96
2020-01-22 09:00:00 2.3 2 Sudoeste 5 Norte 0 -- -- 95
2020-01-22 08:00:00 4 0 Calma 6 Noroeste 0 -- -- 94
2020-01-22 07:00:00 4.4 0 Calma 4 Noroeste 0 -- -- 95
2020-01-22 06:00:00 4.4 0 Calma 6 Noroeste 0.2 -- -- 95
2020-01-22 05:00:00 4.4 0 Calma 4 Oeste 0.4 -- -- 95
2020-01-22 04:00:00 4.2 0 Calma 3 Nordeste 0.2 -- -- 95
2020-01-22 03:00:00 4 0 Calma 6 Oeste 0.4 -- -- 94
2020-01-22 02:00:00 3.9 0 Calma 4 Sur 0.2 -- -- 92
2020-01-22 01:00:00 4 0 Calma 11 Oeste 0 -- -- 90
2020-01-22 00:00:00 4.3 2 Sudoeste 21 Nordeste 0 -- -- 86
2020-01-21 23:00:00 4.4 6 Norte 20 Nordeste 0 -- -- 85
2020-01-21 22:00:00 4.5 4 Noroeste 22 Nordeste 0 -- -- 85
2020-01-21 21:00:00 4.4 6 Norte 23 Nordeste 0 -- -- 86
2020-01-21 20:00:00 4.8 10 Este 21 Este 0 -- -- 86
2020-01-21 19:00:00 4.9 5 Sudeste 37 Nordeste 0 -- -- 86
2020-01-21 18:00:00 4.9 12 Nordeste 29 Nordeste 0 -- -- 85
2020-01-21 17:00:00 5 7 Nordeste 19 Nordeste 0 -- -- 85
2020-01-21 16:00:00 5.2 7 Nordeste 28 Nordeste 0 -- -- 82
2020-01-21 15:00:00 5.1 9 Nordeste 32 Nordeste 0.2 -- -- 83
2020-01-21 14:00:00 5.2 19 Nordeste 41 Este 0 -- -- 80
2020-01-21 13:00:00 4.6 14 Nordeste 46 Este 0 -- -- 80
2020-01-21 12:00:00 4.2 23 Nordeste 57 Norte 0 -- -- 81
2020-01-21 11:00:00 3.1 12 Nordeste 43 Norte 0 -- -- 87
2020-01-21 10:00:00 2.7 16 Nordeste 42 Nordeste 1.8 -- -- 88
2020-01-21 09:00:00 3 12 Nordeste 37 Nordeste 0.6 -- -- 84
2020-01-21 08:00:00 3.6 11 Nordeste 37 Nordeste 0 -- -- 75
2020-01-21 07:00:00 4.1 18 Nordeste 45 Nordeste 0 -- -- 79
2020-01-21 06:00:00 3.5 16 Nordeste 43 Nordeste 0 -- -- 84
2020-01-21 05:00:00 3.5 20 Nordeste 48 Nordeste 0 -- -- 80
2020-01-21 04:00:00 3.8 21 Nordeste 51 Nordeste 0 -- -- 77
2020-01-21 03:00:00 4.2 18 Nordeste 52 Nordeste 0 -- -- 78
2020-01-21 02:00:00 4.2 23 Nordeste 51 Nordeste 0 -- -- 79
2020-01-21 01:00:00 4.2 23 Nordeste 61 Nordeste 0 -- -- 78
2020-01-21 00:00:00 4.5 31 Nordeste 60 Nordeste 0 -- -- 79
2020-01-20 23:00:00 4.5 25 Nordeste 50 Nordeste 0 -- -- 79
2020-01-20 22:00:00 4.7 20 Nordeste 42 Nordeste 0 -- -- 81
2020-01-20 21:00:00 4.9 18 Nordeste 53 Nordeste 0 -- -- 80
2020-01-20 20:00:00 4.9 19 Nordeste 52 Este 0 -- -- 79
2020-01-20 19:00:00 4.9 19 Nordeste 48 Nordeste 0 -- -- 79
2020-01-20 18:00:00 4.3 19 Nordeste 46 Nordeste 0 -- -- 83
2020-01-20 17:00:00 4.5 18 Nordeste 50 Nordeste 0 -- -- 77
2020-01-20 16:00:00 4.8 24 Nordeste 60 Nordeste 0 -- -- 72
2020-01-20 15:00:00 5.4 24 Nordeste 52 Nordeste 0 -- -- 66
2020-01-20 14:00:00 4.9 24 Nordeste 57 Este 0 -- -- 68
2020-01-20 13:00:00 4.1 17 Nordeste 46 Este 0 -- -- 71
2020-01-20 12:00:00 1.7 21 Nordeste 42 Nordeste 0.8 -- -- 77
2020-01-20 11:00:00 0.9 15 Nordeste 47 Nordeste 0.6 -- -- 78
2020-01-20 10:00:00 1.3 13 Nordeste 44 Nordeste 0 -- -- 70
2020-01-20 09:00:00 0.5 20 Nordeste 48 Norte 0 -- -- 77
2020-01-20 08:00:00 0 18 Nordeste 49 Nordeste 0 -- -- 84
2020-01-20 07:00:00 -0.1 16 Nordeste 53 Norte 0 -- -- 86
2020-01-20 06:00:00 0.8 22 Nordeste 55 Nordeste 0 -- -- 75
2020-01-20 05:00:00 1.7 19 Nordeste 44 Nordeste 0 -- -- 66
2020-01-20 04:00:00 1.7 14 Nordeste 38 Este 0 -- -- 63
2020-01-20 03:00:00 1.8 16 Nordeste 53 Norte 0 -- -- 64
2020-01-20 02:00:00 1.9 18 Nordeste 57 Nordeste 0 -- -- 66
2020-01-20 01:00:00 1.8 17 Nordeste 53 Norte 0 -- -- 72
2020-01-20 00:00:00 1.7 15 Nordeste 50 Nordeste 0.2 -- -- 86
2020-01-19 23:00:00 1.9 18 Nordeste 39 Este 1 -- -- 88
2020-01-19 22:00:00 2.4 14 Nordeste 39 Nordeste 0.6 -- -- 88
2020-01-19 21:00:00 2.5 23 Nordeste 45 Nordeste 2.4 -- -- 89
2020-01-19 20:00:00 2.5 16 Nordeste 36 Nordeste 3.4 -- -- 89
2020-01-19 19:00:00 3 12 Nordeste 36 Este 2.4 -- -- 88
2020-01-19 18:00:00 3.4 12 Norte 44 Norte 3.4 -- -- 86
2020-01-19 17:00:00 5.7 13 Nordeste 36 Este 0 -- -- 76
2020-01-19 16:00:00 6.3 7 Oeste 26 Nordeste 0 -- -- 73
2020-01-19 15:00:00 6.1 5 Norte 27 Norte 0.2 -- -- 82
2020-01-19 14:00:00 6.5 8 Norte 38 Nordeste 0.2 -- -- 80
2020-01-19 13:00:00 7.1 7 Norte 32 Nordeste 1.4 -- -- 86
2020-01-19 12:00:00 6.1 5 Nordeste 27 Nordeste 0.6 -- -- 83
2020-01-19 11:00:00 6.8 5 Norte 19 Norte 0 -- -- 78
2020-01-19 10:00:00 6.1 5 Nordeste 16 Nordeste 0 -- -- 82
2020-01-19 09:00:00 4.9 5 Nordeste 15 Nordeste 0 -- -- 88
2020-01-19 08:00:00 5.4 5 Nordeste 21 Nordeste 0 -- -- 88
2020-01-19 07:00:00 6.1 6 Nordeste 19 Norte 0.2 -- -- 86
2020-01-19 06:00:00 6.5 7 Este 19 Noroeste 0 -- -- 84
2020-01-19 05:00:00 6.7 4 Este 22 Norte 0 -- -- 84
2020-01-19 04:00:00 6.2 4 Este 18 Noroeste 0 -- -- 82
2020-01-19 03:00:00 7.7 4 Sudeste 24 Noroeste 0 -- -- 82
2020-01-19 02:00:00 7.8 8 Oeste 35 Noroeste 0 -- -- 84
2020-01-19 01:00:00 8.5 8 Oeste 39 Oeste 0 -- -- 78
2020-01-19 00:00:00 9.5 10 Oeste 46 Oeste 0 -- -- 80
2020-01-18 23:00:00 10.2 14 Oeste 40 Oeste 0 -- -- 91
2020-01-18 22:00:00 9.9 8 Sudoeste 27 Sur 0 -- -- 95
2020-01-18 21:00:00 9.9 9 Sur 23 Sur 0 -- -- 95
2020-01-18 20:00:00 9.3 5 Este 17 Este 1.2 -- -- 96
2020-01-18 19:00:00 8.8 4 Sudeste 9 Este 1 -- -- 96
2020-01-18 18:00:00 8.3 2 Este 10 Sudeste 0.6 -- -- 96
2020-01-18 17:00:00 8.1 2 Sur 11 Sudeste 0.8 -- -- 96
2020-01-18 16:00:00 8.1 6 Sudoeste 13 Sur 1.8 -- -- 95
2020-01-18 15:00:00 8.1 3 Sur 11 Sur 2.2 -- -- 95
2020-01-18 14:00:00 8.2 6 Sudoeste 18 Sur 1.4 -- -- 94
2020-01-18 13:00:00 8.3 9 Sur 17 Sudeste 1.4 -- -- 95
2020-01-18 12:00:00 8.2 8 Sudoeste 13 Sudoeste 1.2 -- -- 96
2020-01-18 11:00:00 7.9 4 Sur 8 Sudeste 0.8 -- -- 95
2020-01-18 10:00:00 7.5 0 Calma 3 Oeste 0.4 -- -- 94
2020-01-18 09:00:00 7.2 2 Sur 5 Este 2 -- -- 94
2020-01-18 08:00:00 7.6 2 Este 14 Oeste 0.8 -- -- 93
2020-01-18 07:00:00 7.4 5 Nordeste 10 Nordeste 0.2 -- -- 94
2020-01-18 06:00:00 6.5 3 Nordeste 7 Nordeste 0 -- -- 92
2020-01-18 05:00:00 5.8 2 Nordeste 6 Este 0 -- -- 93
2020-01-18 04:00:00 5.6 0 Calma 7 Nordeste 0 -- -- 93
2020-01-18 03:00:00 5.2 3 Nordeste 6 Nordeste 0 -- -- 93
2020-01-18 02:00:00 4.8 0 Calma 2 Oeste 0 -- -- 94
2020-01-18 01:00:00 4.7 0 Calma 4 Nordeste 0 -- -- 91
2020-01-18 00:00:00 5 3 Nordeste 5 Nordeste 0 -- -- 91
2020-01-17 23:00:00 5.1 0 Calma 2 Este 0 -- -- 91
2020-01-17 22:00:00 5.2 0 Calma 8 Nordeste 0 -- -- 90
2020-01-17 21:00:00 5.6 0 Calma 5 Nordeste 0 -- -- 85
2020-01-17 20:00:00 5.8 2 Nordeste 7 Norte 0 -- -- 84
2020-01-17 19:00:00 9.4 3 Norte 5 Norte 0 -- -- 74
2020-01-17 18:00:00 11.9 3 Oeste 12 Oeste 0 -- -- 64
2020-01-17 17:00:00 13.1 6 Sudoeste 19 Sudoeste 0 -- -- 59
2020-01-17 16:00:00 14 6 Sudoeste 18 Noroeste 0 -- -- 53
2020-01-17 15:00:00 15 10 Sudoeste 24 Sudoeste 0 -- -- 54
2020-01-17 14:00:00 14.4 5 Oeste 19 Sudoeste 0 -- -- 57
2020-01-17 13:00:00 13.9 9 Oeste 22 Sudoeste 0 -- -- 58
2020-01-17 12:00:00 12 3 Sudeste 9 Sur 0 -- -- 75
2020-01-17 11:00:00 9.2 3 Sur 5 Sur 0 -- -- 86
2020-01-17 10:00:00 8 0 Calma 3 Este 0 -- -- 88
2020-01-17 09:00:00 7.3 0 Calma 4 Este 0 -- -- 89
2020-01-17 08:00:00 7.2 0 Calma 4 Este 0 -- -- 88
2020-01-17 07:00:00 6.8 0 Calma 4 Oeste 0 -- -- 87
2020-01-17 06:00:00 6.7 0 Calma 6 Este 0 -- -- 86
2020-01-17 05:00:00 7.2 0 Calma 6 Oeste 0 -- -- 74
2020-01-17 04:00:00 6.9 0 Calma 4 Nordeste 0 -- -- 73
2020-01-17 03:00:00 6.7 0 Calma 5 Sudeste 0 -- -- 71
2020-01-17 02:00:00 7.4 4 Este 15 Sur 0 -- -- 61
2020-01-17 01:00:00 6.7 4 Sudeste 19 Sur 0 -- -- 66
2020-01-17 00:00:00 6 2 Este 13 Este 0 -- -- 70
2020-01-16 23:00:00 5.7 5 Sudeste 13 Sur 0 -- -- 70
2020-01-16 22:00:00 5.7 3 Este 12 Sudeste 0 -- -- 72
2020-01-16 21:00:00 6.2 0 Calma 6 Este 0 -- -- 70
2020-01-16 20:00:00 6.1 0 Calma 6 Nordeste 0 -- -- 74
2020-01-16 19:00:00 6.8 2 Nordeste 4 Sudoeste 0 -- -- 70
2020-01-16 18:00:00 12 0 Calma 20 Sudoeste 0 -- -- 51
2020-01-16 17:00:00 14.6 11 Sudoeste 23 Sudoeste 0 -- -- 41
2020-01-16 16:00:00 15.3 14 Sudoeste 27 Sudoeste 0 -- -- 41
2020-01-16 15:00:00 16 11 Sur 22 Sur 0 -- -- 38
2020-01-16 14:00:00 15.6 7 Sur 17 Oeste 0 -- -- 44
2020-01-16 13:00:00 14.6 5 Sudeste 13 Sur 0 -- -- 48
2020-01-16 12:00:00 13.7 8 Sur 13 Sur 0 -- -- 50
2020-01-16 11:00:00 11.9 2 Sur 4 Sur 0 -- -- 71
2020-01-16 10:00:00 5.4 0 Calma 3 Este 0 -- -- 97
2020-01-16 09:00:00 2.4 0 Calma 2 Nordeste 0 -- -- 96
2020-01-16 08:00:00 2.3 0 Calma 3 Nordeste 0 -- -- 95
2020-01-16 07:00:00 2.6 0 Calma 2 Nordeste 0 -- -- 95
2020-01-16 06:00:00 2.8 0 Calma 2 Oeste 0 -- -- 94
2020-01-16 05:00:00 3.4 0 Calma 3 Nordeste 0 -- -- 93
2020-01-16 04:00:00 4.4 0 Calma 2 Nordeste 0 -- -- 92
2020-01-16 03:00:00 5.5 0 Calma 4 Nordeste 0 -- -- 90
2020-01-16 02:00:00 6.5 2 Nordeste 8 Sudoeste 0 -- -- 88
2020-01-16 01:00:00 6.2 0 Calma 2 Sudoeste 0 -- -- 89
2020-01-16 00:00:00 6.1 0 Calma 2 Nordeste 0 -- -- 86
2020-01-15 23:00:00 7.6 2 Nordeste 6 Nordeste 0 -- -- 83
2020-01-15 22:00:00 6.7 0 Calma 4 Nordeste 0 -- -- 84
2020-01-15 21:00:00 6.2 0 Calma 4 Este 0 -- -- 82
2020-01-15 20:00:00 7.7 0 Calma 4 Nordeste 0 -- -- 77
2020-01-15 19:00:00 9.6 0 Calma 6 Sudoeste 0 -- -- 71
2020-01-15 18:00:00 11.1 5 Sur 10 Sudoeste 0 -- -- 61
2020-01-15 17:00:00 12 6 Sur 14 Sur 0 -- -- 56
2020-01-15 16:00:00 12.9 6 Sur 20 Sudoeste 0 -- -- 54
2020-01-15 15:00:00 13.6 10 Sur 19 Sur 0 -- -- 49
2020-01-15 14:00:00 13.4 9 Sur 18 Sur 0 -- -- 55
2020-01-15 13:00:00 12.2 4 Sur 14 Sudoeste 0 -- -- 59
2020-01-15 12:00:00 10.9 4 Sudeste 11 Sudeste 0 -- -- 65
2020-01-15 11:00:00 7.1 0 Calma 3 Sudoeste 0 -- -- 85
2020-01-15 10:00:00 3.2 0 Calma 4 Nordeste 0 -- -- 98
2020-01-15 09:00:00 0.7 0 Calma 4 Nordeste 0 -- -- 96
2020-01-15 08:00:00 0.3 0 Calma 5 Sudoeste 0 -- -- 95
2020-01-15 07:00:00 0.6 0 Calma 4 Sudoeste 0 -- -- 95
2020-01-15 06:00:00 0.7 0 Calma 4 Oeste 0 -- -- 94
2020-01-15 05:00:00 1.2 0 Calma 2 Nordeste 0 -- -- 92
2020-01-15 04:00:00 2.2 0 Calma 5 Nordeste 0 -- -- 90
2020-01-15 03:00:00 3.9 0 Calma 4 Sudoeste 0 -- -- 91
2020-01-15 02:00:00 4.1 0 Calma 4 Nordeste 0 -- -- 90
2020-01-15 01:00:00 3.9 0 Calma 4 Nordeste 0 -- -- 90
2020-01-15 00:00:00 3 0 Calma 3 Nordeste 0 -- -- 92
2020-01-14 23:00:00 2.7 0 Calma 4 Nordeste 0 -- -- 92
2020-01-14 22:00:00 3.4 0 Calma 8 Nordeste 0 -- -- 86
2020-01-14 21:00:00 4.3 2 Nordeste 4 Nordeste 0 -- -- 87
2020-01-14 20:00:00 3.8 0 Calma 9 Sudeste 0 -- -- 88
2020-01-14 19:00:00 5 2 Este 5 Sudeste 0 -- -- 80
2020-01-14 18:00:00 8.3 0 Calma 6 Sudeste 0 -- -- 68
2020-01-14 17:00:00 10 4 Sur 15 Sudoeste 0 -- -- 58
2020-01-14 16:00:00 10.9 9 Sudoeste 14 Sudoeste 0 -- -- 57
2020-01-14 15:00:00 10.6 6 Sudoeste 19 Sur 0 -- -- 57
2020-01-14 14:00:00 9.6 12 Sudoeste 19 Sudoeste 0 -- -- 61
2020-01-14 13:00:00 9.8 9 Sur 16 Sudoeste 0 -- -- 64
2020-01-14 12:00:00 8.3 4 Sur 10 Sur 0 -- -- 72
2020-01-14 11:00:00 7.8 0 Calma 5 Noroeste 0 -- -- 77
2020-01-14 10:00:00 3 0 Calma 2 Nordeste 0.2 -- -- 98
2020-01-14 09:00:00 0 0 Calma 4 Este 0 -- -- 96
2020-01-14 08:00:00 -1.1 0 Calma 4 Nordeste 0 -- -- 95
2020-01-14 07:00:00 -1.2 0 Calma 3 Este 0 -- -- 96
2020-01-14 06:00:00 -0.6 0 Calma 3 Nordeste 0 -- -- 95
2020-01-14 05:00:00 -0.8 0 Calma 4 Nordeste -- -- -- 95
2020-01-14 04:00:00 -0.8 0 Calma 2 Este 0 -- -- 95
2020-01-14 03:00:00 -0.7 0 Calma 4 Nordeste 0 -- -- 95
2020-01-14 02:00:00 -0.5 0 Calma 2 Sudoeste 0 -- -- 94
2020-01-14 01:00:00 -0.4 0 Calma 2 Este 0 -- -- 93
2020-01-14 00:00:00 -0.1 0 Calma 2 Norte 0 -- -- 92
2020-01-13 23:00:00 0.7 2 Nordeste 4 Este 0 -- -- 93
2020-01-13 22:00:00 0.9 0 Calma 3 Este 0 -- -- 91
2020-01-13 21:00:00 1.3 0 Calma 3 Nordeste 0 -- -- 86
2020-01-13 20:00:00 2.7 0 Calma 6 Este 0 -- -- 82
2020-01-13 19:00:00 5 0 Calma 4 Sudoeste 0 -- -- 75
2020-01-13 18:00:00 9.2 0 Calma 7 Noroeste 0 -- -- 63
2020-01-13 17:00:00 12 4 Sudoeste 13 Sudoeste 0 -- -- 50
2020-01-13 16:00:00 12.7 5 Sudoeste 15 Sur 0 -- -- 48
2020-01-13 15:00:00 12.2 6 Sur 17 Sudoeste 0 -- -- 49
2020-01-13 14:00:00 11.7 5 Sudoeste 18 Sur 0 -- -- 57
2020-01-13 13:00:00 10.7 8 Sur 16 Sur 0 -- -- 58
2020-01-13 12:00:00 10.2 7 Sudeste 11 Sur 0 -- -- 58
2020-01-13 11:00:00 8.2 0 Calma 2 Sudoeste 0 -- -- 69
2020-01-13 10:00:00 2.4 0 Calma 3 Este 0 -- -- 95
2020-01-13 09:00:00 -1.1 0 Calma 2 Nordeste 0 -- -- 94
2020-01-13 08:00:00 -1 0 Calma 3 Este 0 -- -- 95
2020-01-13 07:00:00 -1 0 Calma 2 Nordeste 0 -- -- 94
2020-01-13 06:00:00 -0.9 0 Calma 3 Nordeste 0 -- -- 93
2020-01-13 05:00:00 -0.6 0 Calma 2 Nordeste 0 -- -- 93
2020-01-13 04:00:00 -0.3 0 Calma 2 Nordeste 0 -- -- 93
2020-01-13 03:00:00 0 0 Calma 2 Este 0 -- -- 92
2020-01-13 02:00:00 0.2 0 Calma 3 Este 0 -- -- 91
2020-01-13 01:00:00 0.4 0 Calma 3 Este 0 -- -- 90
2020-01-13 00:00:00 0.5 0 Calma 4 Nordeste 0 -- -- 88
2020-01-12 23:00:00 1.1 0 Calma 5 Este 0 -- -- 86
2020-01-12 22:00:00 1.5 0 Calma 4 Nordeste 0 -- -- 84
2020-01-12 21:00:00 2.3 0 Calma 3 Nordeste 0 -- -- 83
2020-01-12 20:00:00 3.6 0 Calma 4 Nordeste 0 -- -- 78
2020-01-12 19:00:00 5.9 0 Calma 7 Norte 0 -- -- 70
2020-01-12 18:00:00 10.4 0 Calma 10 Oeste 0 -- -- 57
2020-01-12 17:00:00 14.1 6 Sudoeste 12 Sudoeste 0 -- -- 46
2020-01-12 16:00:00 14.5 5 Sudoeste 16 Sudoeste 0 -- -- 46
2020-01-12 15:00:00 14.2 8 Sudoeste 14 Sudoeste 0 -- -- 47
2020-01-12 14:00:00 13.6 7 Sur 14 Sur 0 -- -- 50
2020-01-12 13:00:00 12.8 4 Sur 13 Sudeste 0 -- -- 55
2020-01-12 12:00:00 11.2 6 Sudeste 10 Sudeste 0 -- -- 60
2020-01-12 11:00:00 9 2 Sudoeste 4 Sur 0 -- -- 71
2020-01-12 10:00:00 2.7 0 Calma 3 Este 0 -- -- 95
2020-01-12 09:00:00 -0.2 0 Calma 4 Nordeste 0 -- -- 95
2020-01-12 08:00:00 -0.3 0 Calma 2 Este 0 -- -- 95
2020-01-12 07:00:00 -0.4 0 Calma 2 Este 0 -- -- 94
2020-01-12 06:00:00 -0.1 0 Calma 0 Calma 0 -- -- 94
2020-01-12 05:00:00 0.1 0 Calma 2 Nordeste 0 -- -- 94
2020-01-12 04:00:00 0.3 0 Calma 2 Nordeste 0 -- -- 93
2020-01-12 03:00:00 0.5 0 Calma 3 Este 0 -- -- 92
2020-01-12 02:00:00 0.7 0 Calma 3 Este 0 -- -- 91
2020-01-12 01:00:00 1.1 0 Calma 3 Nordeste 0 -- -- 90
2020-01-12 00:00:00 1.4 0 Calma 3 Nordeste 0 -- -- 88
2020-01-11 23:00:00 2.1 0 Calma 10 Norte 0 -- -- 86
2020-01-11 22:00:00 2.5 3 Nordeste 10 Nordeste 0 -- -- 87
2020-01-11 21:00:00 2.4 0 Calma 12 Norte 0 -- -- 84
2020-01-11 20:00:00 4 0 Calma 5 Norte 0 -- -- 77
2020-01-11 19:00:00 7.9 2 Noroeste 11 Norte 0 -- -- 62
2020-01-11 18:00:00 10.1 5 Norte 10 Oeste 0 -- -- 56
2020-01-11 17:00:00 13.4 5 Noroeste 13 Sur 0 -- -- 48
2020-01-11 16:00:00 13.5 5 Sur 12 Sudeste 0 -- -- 47
2020-01-11 15:00:00 13.5 6 Sudoeste 17 Este 0 -- -- 47
2020-01-11 14:00:00 12.3 9 Este 23 Este 0 -- -- 48
2020-01-11 13:00:00 11.4 13 Nordeste 33 Nordeste 0 -- -- 50
2020-01-11 12:00:00 10.8 13 Nordeste 25 Nordeste 0 -- -- 50
2020-01-11 11:00:00 10.2 7 Nordeste 25 Nordeste 0 -- -- 50
2020-01-11 10:00:00 7.7 6 Norte 26 Nordeste 0 -- -- 59
2020-01-11 09:00:00 4.3 8 Nordeste 20 Nordeste 0 -- -- 67
2020-01-11 08:00:00 4 8 Norte 19 Norte 0 -- -- 69
2020-01-11 07:00:00 4.2 6 Norte 17 Nordeste 0 -- -- 68
2020-01-11 06:00:00 4.3 5 Noroeste 20 Noroeste 0 -- -- 67
2020-01-11 05:00:00 4.1 6 Noroeste 17 Norte 0 -- -- 69
2020-01-11 04:00:00 4.7 4 Nordeste 23 Nordeste 0 -- -- 66
2020-01-11 03:00:00 4.6 7 Norte 19 Este 0 -- -- 66
2020-01-11 02:00:00 5 5 Nordeste 18 Este 0 -- -- 65
2020-01-11 01:00:00 6.2 2 Oeste 32 Este 0 -- -- 60
2020-01-11 00:00:00 6.5 7 Nordeste 27 Nordeste 0 -- -- 58
2020-01-10 23:00:00 7.2 10 Este 33 Nordeste 0 -- -- 55
2020-01-10 22:00:00 7.2 9 Nordeste 22 Nordeste 0 -- -- 55
2020-01-10 21:00:00 6.3 3 Noroeste 14 Sur 0 -- -- 59
2020-01-10 20:00:00 7.2 5 Nordeste 17 Nordeste 0 -- -- 56
2020-01-10 19:00:00 7.7 6 Nordeste 24 Este 0 -- -- 54
2020-01-10 18:00:00 8.8 8 Nordeste 27 Nordeste 0 -- -- 48
2020-01-10 17:00:00 10.4 11 Nordeste 31 Este 0 -- -- 48
2020-01-10 16:00:00 10.9 15 Este 38 Este 0 -- -- 45
2020-01-10 15:00:00 11.2 18 Nordeste 35 Este 0 -- -- 47
2020-01-10 14:00:00 11.5 10 Este 27 Este 0 -- -- 52
2020-01-10 13:00:00 10.6 11 Nordeste 26 Nordeste 0 -- -- 58
2020-01-10 12:00:00 9.2 12 Nordeste 23 Este 0 -- -- 64
2020-01-10 11:00:00 7.9 4 Nordeste 17 Nordeste 0 -- -- 75
2020-01-10 10:00:00 7.9 4 Norte 17 Nordeste 0 -- -- 83
2020-01-10 09:00:00 5.8 0 Calma 5 Sur 0 -- -- 93
2020-01-10 08:00:00 5.8 2 Oeste 5 Sur 0 -- -- 92
2020-01-10 07:00:00 5.5 0 Calma 9 Noroeste 0 -- -- 91
2020-01-10 06:00:00 5.3 0 Calma 3 Sudeste 0 -- -- 91
2020-01-10 05:00:00 5.2 0 Calma 4 Sur 0 -- -- 93
2020-01-10 04:00:00 4.9 0 Calma 3 Nordeste 0 -- -- 95
2020-01-10 03:00:00 3.2 0 Calma 5 Este 0 -- -- 94
2020-01-10 02:00:00 3 0 Calma 3 Sudoeste 0 -- -- 93
2020-01-10 01:00:00 2.7 0 Calma 4 Nordeste 0 -- -- 92
2020-01-10 00:00:00 3.2 0 Calma 4 Nordeste 0 -- -- 91
2020-01-09 23:00:00 3 0 Calma 8 Norte 0 -- -- 91
2020-01-09 22:00:00 2.6 0 Calma 4 Este 0 -- -- 90
2020-01-09 21:00:00 3.2 0 Calma 4 Este 0 -- -- 89
2020-01-09 20:00:00 4.6 0 Calma 3 Oeste 0 -- -- 84
2020-01-09 19:00:00 6.3 0 Calma 6 Norte 0 -- -- 72
2020-01-09 18:00:00 10.6 0 Calma 10 Sudoeste 0 -- -- 60
2020-01-09 17:00:00 14.4 7 Sudoeste 18 Sudoeste 0 -- -- 49
2020-01-09 16:00:00 15.1 10 Sudoeste 17 Sudoeste 0 -- -- 52
2020-01-09 15:00:00 15.1 6 Sur 14 Sur 0 -- -- 52
2020-01-09 14:00:00 14.2 5 Sudeste 15 Sudeste 0 -- -- 52
2020-01-09 13:00:00 13.5 7 Sur 15 Sudeste 0 -- -- 53
2020-01-09 12:00:00 12 6 Sudeste 10 Sur 0 -- -- 60
2020-01-09 11:00:00 10.4 4 Sur 6 Sur 0 -- -- 66
2020-01-09 10:00:00 4.2 0 Calma 2 Este 0 -- -- 91
2020-01-09 09:00:00 1.1 0 Calma 4 Nordeste 0 -- -- 93
2020-01-09 08:00:00 1.2 0 Calma 2 Nordeste 0 -- -- 92
2020-01-09 07:00:00 1.7 0 Calma 2 Nordeste 0 -- -- 91
2020-01-09 06:00:00 1.9 0 Calma 0 Calma 0 -- -- 90
2020-01-09 05:00:00 2.4 0 Calma 2 Nordeste 0 -- -- 88
2020-01-09 04:00:00 2.9 0 Calma 2 Nordeste 0 -- -- 84
2020-01-09 03:00:00 3.2 0 Calma 2 Nordeste 0 -- -- 83
2020-01-09 02:00:00 3.6 0 Calma 0 Calma 0 -- -- 81
2020-01-09 01:00:00 3.7 0 Calma 2 Nordeste 0 -- -- 78
2020-01-09 00:00:00 4.2 0 Calma 2 Nordeste 0 -- -- 75
2020-01-08 23:00:00 4.6 0 Calma 3 Nordeste 0 -- -- 75
2020-01-08 22:00:00 5.5 2 Nordeste 6 Norte 0 -- -- 69
2020-01-08 21:00:00 6.2 2 Nordeste 6 Nordeste 0 -- -- 64
2020-01-08 20:00:00 6.6 0 Calma 4 Norte 0 -- -- 62
2020-01-08 19:00:00 8.9 0 Calma 6 Nordeste 0 -- -- 54
2020-01-08 18:00:00 13.4 0 Calma 8 Oeste 0 -- -- 48
2020-01-08 17:00:00 19.6 4 Sudoeste 12 Sudoeste 0 -- -- 31
2020-01-08 16:00:00 19.5 6 Sudoeste 12 Sur 0 -- -- 31
2020-01-08 15:00:00 18.8 5 Sur 13 Sur 0 -- -- 31
2020-01-08 14:00:00 18.4 6 Sur 11 Sur 0 -- -- 32
2020-01-08 13:00:00 17.2 5 Sudeste 9 Sur 0 -- -- 43
2020-01-08 12:00:00 16.1 5 Sur 6 Sudeste 0 -- -- 41
2020-01-08 11:00:00 12.6 0 Calma 3 Sur 0 -- -- 52
2020-01-08 10:00:00 5.6 0 Calma 3 Nordeste 0 -- -- 77
2020-01-08 09:00:00 2.4 0 Calma 4 Nordeste 0 -- -- 80
2020-01-08 08:00:00 2.7 0 Calma 3 Este 0 -- -- 77
2020-01-08 07:00:00 2.5 0 Calma 5 Nordeste 0 -- -- 77
2020-01-08 06:00:00 3 0 Calma 3 Nordeste 0 -- -- 70
2020-01-08 05:00:00 3 0 Calma 4 Este 0 -- -- 71
2020-01-08 04:00:00 3.3 0 Calma 5 Nordeste 0 -- -- 64
2020-01-08 03:00:00 3 2 Nordeste 5 Este 0 -- -- 67
2020-01-08 02:00:00 3.3 0 Calma 4 Este 0 -- -- 67
2020-01-08 01:00:00 3.4 0 Calma 5 Este 0 -- -- 68
2020-01-08 00:00:00 3.1 0 Calma 3 Nordeste 0 -- -- 67
2020-01-07 23:00:00 3.1 0 Calma 3 Nordeste 0 -- -- 65
2020-01-07 22:00:00 3.2 0 Calma 3 Nordeste 0 -- -- 70
2020-01-07 21:00:00 4.4 0 Calma 5 Nordeste 0 -- -- 65
2020-01-07 20:00:00 5.9 0 Calma 11 Norte 0 -- -- 63
2020-01-07 19:00:00 9.3 3 Norte 11 Norte 0 -- -- 47
2020-01-07 18:00:00 13.2 7 Norte 12 Norte 0 -- -- 35
2020-01-07 17:00:00 18.6 6 Oeste 12 Oeste 0 -- -- 30
2020-01-07 16:00:00 18.8 6 Sur 20 Sudoeste 0 -- -- 31
2020-01-07 15:00:00 18.6 8 Sur 14 Sudeste 0 -- -- 34
2020-01-07 14:00:00 18.4 6 Sur 11 Sudoeste 0 -- -- 35
2020-01-07 13:00:00 17.4 5 Sur 8 Sudoeste 0 -- -- 45
2020-01-07 12:00:00 15.8 3 Sur 5 Sur 0 -- -- 47
2020-01-07 11:00:00 11.6 2 Sur 6 Oeste 0 -- -- 60
2020-01-07 10:00:00 4.5 0 Calma 5 Nordeste 0 -- -- 81
2020-01-07 09:00:00 1.3 0 Calma 6 Nordeste 0 -- -- 85
2020-01-07 08:00:00 1.3 0 Calma 5 Nordeste 0 -- -- 84
2020-01-07 07:00:00 1.8 0 Calma 4 Este 0 -- -- 85
2020-01-07 06:00:00 3.5 0 Calma 11 Norte 0 -- -- 80
2020-01-07 05:00:00 7.4 3 Nordeste 17 Nordeste 0 -- -- 67
2020-01-07 04:00:00 5.4 9 Norte 15 Norte 0 -- -- 77
2020-01-07 03:00:00 2.8 6 Norte 15 Noroeste 0 -- -- 86
2020-01-07 02:00:00 2.7 0 Calma 5 Nordeste 0 -- -- 90
2020-01-07 01:00:00 3 0 Calma 5 Este -- -- -- 90
2020-01-07 00:00:00 3 2 Nordeste 6 Nordeste 0 -- -- 90
2020-01-06 23:00:00 3.3 0 Calma 4 Este 0 -- -- 89
2020-01-06 22:00:00 3.3 0 Calma 4 Nordeste 0 -- -- 89
2020-01-06 21:00:00 4.1 0 Calma 2 Nordeste 0 -- -- 88
2020-01-06 20:00:00 5.4 0 Calma 4 Nordeste 0 -- -- 82
2020-01-06 19:00:00 7.3 0 Calma 9 Norte 0 -- -- 76
2020-01-06 18:00:00 12.3 3 Norte 6 Noroeste 0 -- -- 57
2020-01-06 17:00:00 16.2 3 Sur 9 Sudoeste 0 -- -- 49
2020-01-06 16:00:00 16 5 Sur 13 Sudeste 0 -- -- 48
2020-01-06 15:00:00 15.9 6 Sur 12 Sudeste 0 -- -- 49
2020-01-06 14:00:00 15.3 4 Sudeste 12 Sudeste 0 -- -- 51
2020-01-06 13:00:00 14.1 6 Sur 12 Sudeste 0 -- -- 53
2020-01-06 12:00:00 13.1 5 Sur 8 Sur 0 -- -- 53
2020-01-06 11:00:00 10.3 0 Calma 2 Sur 0 -- -- 69
2020-01-06 10:00:00 3.6 0 Calma 2 Sudeste 0 -- -- 91